Flight Track Log - Related Links

Times and Time Zones

All times are in EDT time to prevent confusion due to time zone crossing. See the SWA2975 flight status page for this flight to view local times or setup timezone preferences in your user account.

Time Position Orientation Groundspeed Altitude Reporting Facility
EDT Latitude Longitude Course Direction KTS MPH feet Rate Location/Type
Fri 09:38:32 PM 33.6556 -84.4881 297° West 428 493 3,300  Level Atlanta Center
Fri 09:39:32 PM 33.6889 -84.5681 297° West 354 407 5,800 3,300 Climbing Atlanta Center
Fri 09:40:32 PM 33.7575 -84.5836 349° North 279 321 9,900 4,000 Climbing Atlanta Center
Fri 09:41:32 PM 33.8369 -84.5839 360° North 305 351 13,800 3,150 Climbing Atlanta Center
Fri 09:42:32 PM 33.9308 -84.5822 North 316 364 16,200 2,600 Climbing Atlanta Center
Fri 09:43:32 PM 34.0308 -84.5878 357° North 333 383 19,000 2,800 Climbing Atlanta Center
Fri 09:44:32 PM 34.1311 -84.5908 359° North 372 428 21,800 2,300 Climbing Atlanta Center
Fri 09:45:32 PM 34.2500 -84.5942 359° North 389 448 23,600 2,200 Climbing Atlanta Center
Fri 09:46:32 PM 34.3586 -84.6125 352° North 395 455 26,200 2,300 Climbing Atlanta Center
Fri 09:47:32 PM 34.4711 -84.6383 349° North 402 463 28,200 2,200 Climbing Atlanta Center
Fri 09:48:32 PM 34.5858 -84.6669 348° North 412 474 30,600 1,900 Climbing Atlanta Center
Fri 09:49:32 PM 34.6942 -84.6981 347° North 405 466 32,000 700 Climbing Atlanta Center
Fri 09:50:32 PM 34.8086 -84.7269 348° North 405 466 32,000  Level Atlanta Center
Fri 09:51:32 PM 34.9214 -84.7556 348° North 411 473 32,000  Level Atlanta Center
Fri 09:52:32 PM 35.0358 -84.7819 349° North 411 473 32,000  Level Atlanta Center
Fri 09:53:32 PM 35.1483 -84.8108 348° North 411 473 32,000  Level Atlanta Center
Fri 09:54:32 PM 35.2589 -84.8375 349° North 411 473 32,000  Level Atlanta Center
Fri 09:55:32 PM 35.3714 -84.8664 348° North 411 473 32,000  Level Atlanta Center
Fri 09:56:32 PM 35.4836 -84.8958 348° North 411 473 32,000  Level Atlanta Center
Fri 09:57:32 PM 35.5961 -84.9225 349° North 411 473 32,000 -652 Level Atlanta Center
Fri 09:59:36 PM 35.8122 -84.9750 349° North 414 476 30,000 -649 Descending Indianapolis Center
Fri 10:00:37 PM 35.9272 -85.0039 349° North 417 480 30,000  Level Indianapolis Center
Fri 10:01:38 PM 36.0597 -85.0356 349° North 413 475 30,000  Level Indianapolis Center
Fri 10:02:39 PM 36.1733 -85.0644 348° North 413 475 30,000  Level Indianapolis Center
Fri 10:03:40 PM 36.2858 -85.0925 349° North 412 474 30,000 -148 Level Indianapolis Center
Fri 10:04:41 PM 36.3975 -85.1206 349° North 411 473 29,700 -634 Descending Indianapolis Center
Fri 10:05:43 PM 36.5114 -85.1489 349° North 414 476 28,700 -927 Descending Indianapolis Center
Fri 10:06:44 PM 36.6278 -85.1581 356° North 425 489 27,800 -984 Descending Indianapolis Center
Fri 10:07:45 PM 36.7467 -85.1339 North 429 494 26,700 -1,033 Descending Indianapolis Center
Fri 10:08:46 PM 36.8617 -85.1119 North 419 482 25,700 -984 Descending Indianapolis Center
Fri 10:09:47 PM 36.9753 -85.0897 North 414 476 24,700 -1,082 Descending Indianapolis Center
Fri 10:10:48 PM 37.1028 -85.0631 North 406 467 23,500 -1,623 Descending Indianapolis Center
Fri 10:11:49 PM 37.2128 -85.0425 North 400 460 21,400 -2,410 Descending Indianapolis Center
Fri 10:12:50 PM 37.3208 -85.0008 17° North 410 472 18,600 -2,390 Descending Indianapolis Center
Fri 10:13:52 PM 37.4222 -84.9517 21° North 379 436 16,500 -1,951 Descending Indianapolis Center
Fri 10:14:53 PM 37.5153 -84.9339 North 364 419 14,600 -1,426 Descending Indianapolis Center
Fri 10:15:54 PM 37.6081 -84.9464 354° North 339 390 13,600 -984 Descending Indianapolis Center
Fri 10:16:55 PM 37.6872 -84.9975 333° Northwest 330 380 12,600 -1,377 Descending Indianapolis Center
Fri 10:17:56 PM 37.7489 -85.0822 313° West 330 380 10,800 -1,426 Descending Indianapolis Center
Fri 10:18:57 PM 37.8047 -85.1594 312° West 310 357 9,700 -1,279 Descending Indianapolis Center
Fri 10:19:58 PM 37.8392 -85.2453 297° West 271 312 8,200 -1,475 Descending Indianapolis Center
Fri 10:20:59 PM 37.8622 -85.3333 288° West 264 304 6,700 -1,525 Descending Indianapolis Center
Fri 10:22:00 PM 37.8897 -85.4194 292° West 263 303 5,100 -1,328 Descending Indianapolis Center
Fri 10:23:01 PM 37.9150 -85.5056 290° West 262 302 4,000 -829 Descending Indianapolis Center
Fri 10:24:03 PM 37.9397 -85.5894 291° West 258 297 3,400 -634 Descending Indianapolis Center
Fri 10:25:04 PM 37.9831 -85.6556 310° West 251 289 2,700 -443 Descending Indianapolis Center
Fri 10:26:05 PM 38.0406 -85.7003 329° Northwest 248 285 2,500 -344 Descending Indianapolis Center
Fri 10:27:06 PM 38.0878 -85.7142 347° North 202 232 2,000 -492 Descending Indianapolis Center
Fri 10:29:00 PM 38.1741 -85.7365 345° North  Level Estimated
Fri 10:36:00 PM 38.1741 -85.7365 208° Southwest  Level Estimated

Login

Don't have an account? Register now (free) for customized features, flight alerts, and more!